sensor_id;sensor_type;location;lat;lon;timestamp;temperature;humidity
15969;DHT22;8085;53.472;9.794;2022-09-04T00:02:00;20.20;1.00
15969;DHT22;8085;53.472;9.794;2022-09-04T00:04:35;20.30;1.00
15969;DHT22;8085;53.472;9.794;2022-09-04T00:07:10;20.30;1.00
15969;DHT22;8085;53.472;9.794;2022-09-04T00:09:47;20.40;1.00
15969;DHT22;8085;53.472;9.794;2022-09-04T00:12:22;20.40;1.00
15969;DHT22;8085;53.472;9.794;2022-09-04T00:14:55;20.30;1.00
15969;DHT22;8085;53.472;9.794;2022-09-04T00:17:29;20.30;1.00
15969;DHT22;8085;53.472;9.794;2022-09-04T00:20:01;20.30;1.00
15969;DHT22;8085;53.472;9.794;2022-09-04T00:22:33;20.20;1.00
15969;DHT22;8085;53.472;9.794;2022-09-04T00:25:09;20.20;1.00
15969;DHT22;8085;53.472;9.794;2022-09-04T00:27:43;20.20;1.00
15969;DHT22;8085;53.472;9.794;2022-09-04T00:30:15;20.20;1.00
15969;DHT22;8085;53.472;9.794;2022-09-04T00:32:49;20.10;1.00
15969;DHT22;8085;53.472;9.794;2022-09-04T00:35:20;20.10;1.00
15969;DHT22;8085;53.472;9.794;2022-09-04T00:37:54;20.10;1.00
15969;DHT22;8085;53.472;9.794;2022-09-04T00:40:28;20.10;1.00
15969;DHT22;8085;53.472;9.794;2022-09-04T00:46:02;20.00;1.00
15969;DHT22;8085;53.472;9.794;2022-09-04T00:51:37;20.00;1.00
15969;DHT22;8085;53.472;9.794;2022-09-04T00:54:34;20.00;1.00
15969;DHT22;8085;53.472;9.794;2022-09-04T01:00:10;20.00;1.00
15969;DHT22;8085;53.472;9.794;2022-09-04T01:02:55;20.00;1.00
15969;DHT22;8085;53.472;9.794;2022-09-04T01:05:38;20.00;1.00
15969;DHT22;8085;53.472;9.794;2022-09-04T01:08:14;20.00;1.00
15969;DHT22;8085;53.472;9.794;2022-09-04T01:10:52;20.00;1.00
15969;DHT22;8085;53.472;9.794;2022-09-04T01:13:33;20.00;1.00
15969;DHT22;8085;53.472;9.794;2022-09-04T01:16:07;20.00;1.00
15969;DHT22;8085;53.472;9.794;2022-09-04T01:18:41;20.00;1.00
15969;DHT22;8085;53.472;9.794;2022-09-04T01:21:33;19.90;1.00
15969;DHT22;8085;53.472;9.794;2022-09-04T01:24:28;19.90;1.00
15969;DHT22;8085;53.472;9.794;2022-09-04T01:27:04;19.90;1.00
15969;DHT22;8085;53.472;9.794;2022-09-04T01:29:40;19.90;1.00
15969;DHT22;8085;53.472;9.794;2022-09-04T01:32:18;19.90;1.00
15969;DHT22;8085;53.472;9.794;2022-09-04T01:34:55;19.90;1.00
15969;DHT22;8085;53.472;9.794;2022-09-04T01:37:38;19.90;1.00
15969;DHT22;8085;53.472;9.794;2022-09-04T01:40:28;19.90;1.00
15969;DHT22;8085;53.472;9.794;2022-09-04T01:43:03;19.80;1.00
15969;DHT22;8085;53.472;9.794;2022-09-04T01:45:41;19.80;1.00
15969;DHT22;8085;53.472;9.794;2022-09-04T01:48:15;19.70;1.00
15969;DHT22;8085;53.472;9.794;2022-09-04T01:50:46;19.80;1.00
15969;DHT22;8085;53.472;9.794;2022-09-04T01:53:19;19.70;1.00
15969;DHT22;8085;53.472;9.794;2022-09-04T01:55:57;19.80;1.00
15969;DHT22;8085;53.472;9.794;2022-09-04T01:58:35;19.80;1.00
15969;DHT22;8085;53.472;9.794;2022-09-04T02:01:12;19.80;1.00
15969;DHT22;8085;53.472;9.794;2022-09-04T02:03:46;19.80;1.00
15969;DHT22;8085;53.472;9.794;2022-09-04T02:06:24;19.70;1.00
15969;DHT22;8085;53.472;9.794;2022-09-04T02:09:04;19.70;1.00
15969;DHT22;8085;53.472;9.794;2022-09-04T02:11:36;19.70;1.00
15969;DHT22;8085;53.472;9.794;2022-09-04T02:14:14;19.60;1.00
15969;DHT22;8085;53.472;9.794;2022-09-04T02:16:54;19.70;1.00
15969;DHT22;8085;53.472;9.794;2022-09-04T02:19:34;19.70;1.00
15969;DHT22;8085;53.472;9.794;2022-09-04T02:22:07;19.70;1.00
15969;DHT22;8085;53.472;9.794;2022-09-04T02:24:43;19.70;1.00
15969;DHT22;8085;53.472;9.794;2022-09-04T02:27:20;19.80;1.00
15969;DHT22;8085;53.472;9.794;2022-09-04T02:29:54;19.70;1.00
15969;DHT22;8085;53.472;9.794;2022-09-04T02:32:25;19.60;1.00
15969;DHT22;8085;53.472;9.794;2022-09-04T02:34:57;19.60;1.00
15969;DHT22;8085;53.472;9.794;2022-09-04T02:37:32;19.70;1.00
15969;DHT22;8085;53.472;9.794;2022-09-04T02:40:09;19.70;1.00
15969;DHT22;8085;53.472;9.794;2022-09-04T02:42:43;19.70;1.00
15969;DHT22;8085;53.472;9.794;2022-09-04T02:45:21;19.80;1.00
15969;DHT22;8085;53.472;9.794;2022-09-04T02:47:56;19.80;1.00
15969;DHT22;8085;53.472;9.794;2022-09-04T02:50:38;19.80;1.00
15969;DHT22;8085;53.472;9.794;2022-09-04T02:53:22;19.90;1.00
15969;DHT22;8085;53.472;9.794;2022-09-04T02:56:01;19.80;1.00
15969;DHT22;8085;53.472;9.794;2022-09-04T02:58:42;19.80;1.00
15969;DHT22;8085;53.472;9.794;2022-09-04T03:01:22;19.80;1.00
15969;DHT22;8085;53.472;9.794;2022-09-04T03:03:59;19.80;1.00
15969;DHT22;8085;53.472;9.794;2022-09-04T03:06:42;19.80;1.00
15969;DHT22;8085;53.472;9.794;2022-09-04T03:09:16;19.80;1.00
15969;DHT22;8085;53.472;9.794;2022-09-04T03:11:49;19.70;1.00
15969;DHT22;8085;53.472;9.794;2022-09-04T03:14:23;19.70;1.00
15969;DHT22;8085;53.472;9.794;2022-09-04T03:16:58;19.70;1.00
15969;DHT22;8085;53.472;9.794;2022-09-04T03:19:31;19.70;1.00
15969;DHT22;8085;53.472;9.794;2022-09-04T03:22:03;19.70;1.00
15969;DHT22;8085;53.472;9.794;2022-09-04T03:24:37;19.70;1.00
15969;DHT22;8085;53.472;9.794;2022-09-04T03:27:10;19.70;1.00
15969;DHT22;8085;53.472;9.794;2022-09-04T03:29:44;19.70;1.00
15969;DHT22;8085;53.472;9.794;2022-09-04T03:32:17;19.70;1.00
15969;DHT22;8085;53.472;9.794;2022-09-04T03:34:49;19.70;1.00
15969;DHT22;8085;53.472;9.794;2022-09-04T03:37:38;19.60;1.00
15969;DHT22;8085;53.472;9.794;2022-09-04T03:40:16;19.60;1.00
15969;DHT22;8085;53.472;9.794;2022-09-04T03:42:57;19.60;1.00
15969;DHT22;8085;53.472;9.794;2022-09-04T03:45:33;19.50;1.00
15969;DHT22;8085;53.472;9.794;2022-09-04T03:48:22;19.50;1.00
15969;DHT22;8085;53.472;9.794;2022-09-04T03:50:56;19.60;1.00
15969;DHT22;8085;53.472;9.794;2022-09-04T03:53:30;19.60;1.00
15969;DHT22;8085;53.472;9.794;2022-09-04T03:59:00;19.50;1.00
15969;DHT22;8085;53.472;9.794;2022-09-04T04:01:36;19.50;1.00
15969;DHT22;8085;53.472;9.794;2022-09-04T04:07:06;19.40;1.00
15969;DHT22;8085;53.472;9.794;2022-09-04T04:09:45;19.40;1.00
15969;DHT22;8085;53.472;9.794;2022-09-04T04:12:35;19.50;1.00
15969;DHT22;8085;53.472;9.794;2022-09-04T04:15:15;19.50;1.00
15969;DHT22;8085;53.472;9.794;2022-09-04T04:18:20;19.50;1.00
15969;DHT22;8085;53.472;9.794;2022-09-04T04:20:59;19.50;1.00
15969;DHT22;8085;53.472;9.794;2022-09-04T04:23:53;19.40;1.00
15969;DHT22;8085;53.472;9.794;2022-09-04T04:26:38;19.40;1.00
15969;DHT22;8085;53.472;9.794;2022-09-04T04:29:21;19.40;1.00
15969;DHT22;8085;53.472;9.794;2022-09-04T04:31:58;19.40;1.00
15969;DHT22;8085;53.472;9.794;2022-09-04T04:34:45;19.50;1.00
15969;DHT22;8085;53.472;9.794;2022-09-04T04:37:24;19.40;1.00
15969;DHT22;8085;53.472;9.794;2022-09-04T04:40:01;19.30;1.00
15969;DHT22;8085;53.472;9.794;2022-09-04T04:42:34;19.30;1.00
15969;DHT22;8085;53.472;9.794;2022-09-04T04:45:13;19.30;1.00
15969;DHT22;8085;53.472;9.794;2022-09-04T04:48:35;19.30;1.00
15969;DHT22;8085;53.472;9.794;2022-09-04T04:51:16;19.30;1.00
15969;DHT22;8085;53.472;9.794;2022-09-04T04:53:52;19.20;1.00
15969;DHT22;8085;53.472;9.794;2022-09-04T04:56:25;19.10;1.00
15969;DHT22;8085;53.472;9.794;2022-09-04T04:59:02;19.10;1.00
15969;DHT22;8085;53.472;9.794;2022-09-04T05:01:41;19.10;1.00
15969;DHT22;8085;53.472;9.794;2022-09-04T05:04:19;19.10;1.00
15969;DHT22;8085;53.472;9.794;2022-09-04T05:06:51;19.10;1.00
15969;DHT22;8085;53.472;9.794;2022-09-04T05:09:28;19.10;1.00
15969;DHT22;8085;53.472;9.794;2022-09-04T05:12:02;19.10;1.00
15969;DHT22;8085;53.472;9.794;2022-09-04T05:14:40;19.20;1.00
15969;DHT22;8085;53.472;9.794;2022-09-04T05:17:26;19.10;1.00
15969;DHT22;8085;53.472;9.794;2022-09-04T05:20:17;19.20;1.00
15969;DHT22;8085;53.472;9.794;2022-09-04T05:22:50;19.20;1.00
15969;DHT22;8085;53.472;9.794;2022-09-04T05:25:26;19.20;1.00
15969;DHT22;8085;53.472;9.794;2022-09-04T05:28:06;19.20;1.00
15969;DHT22;8085;53.472;9.794;2022-09-04T05:30:41;19.30;1.00
15969;DHT22;8085;53.472;9.794;2022-09-04T05:33:19;19.30;1.00
15969;DHT22;8085;53.472;9.794;2022-09-04T05:35:53;19.20;1.00
15969;DHT22;8085;53.472;9.794;2022-09-04T05:38:29;19.20;1.00
15969;DHT22;8085;53.472;9.794;2022-09-04T05:41:05;19.20;1.00
15969;DHT22;8085;53.472;9.794;2022-09-04T05:43:54;19.20;1.00
15969;DHT22;8085;53.472;9.794;2022-09-04T05:46:32;19.20;1.00
15969;DHT22;8085;53.472;9.794;2022-09-04T05:49:10;19.30;1.00
15969;DHT22;8085;53.472;9.794;2022-09-04T05:52:03;19.30;1.00
15969;DHT22;8085;53.472;9.794;2022-09-04T05:57:37;19.40;1.00
15969;DHT22;8085;53.472;9.794;2022-09-04T06:00:09;19.40;1.00
15969;DHT22;8085;53.472;9.794;2022-09-04T06:03:03;19.40;1.00
15969;DHT22;8085;53.472;9.794;2022-09-04T06:05:43;19.40;1.00
15969;DHT22;8085;53.472;9.794;2022-09-04T06:08:24;19.90;1.00
15969;DHT22;8085;53.472;9.794;2022-09-04T06:11:00;20.10;1.00
15969;DHT22;8085;53.472;9.794;2022-09-04T06:16:47;20.70;1.00
15969;DHT22;8085;53.472;9.794;2022-09-04T06:19:31;20.70;1.00
15969;DHT22;8085;53.472;9.794;2022-09-04T06:22:26;20.80;1.00
15969;DHT22;8085;53.472;9.794;2022-09-04T06:25:31;20.80;1.00
15969;DHT22;8085;53.472;9.794;2022-09-04T06:31:00;20.80;1.00
15969;DHT22;8085;53.472;9.794;2022-09-04T06:33:47;20.90;1.00
15969;DHT22;8085;53.472;9.794;2022-09-04T06:39:25;20.70;1.00
15969;DHT22;8085;53.472;9.794;2022-09-04T06:42:05;20.60;1.00
15969;DHT22;8085;53.472;9.794;2022-09-04T06:44:45;20.60;1.00
15969;DHT22;8085;53.472;9.794;2022-09-04T06:47:21;20.60;1.00
15969;DHT22;8085;53.472;9.794;2022-09-04T06:50:12;20.60;1.00
15969;DHT22;8085;53.472;9.794;2022-09-04T06:52:45;20.60;1.00
15969;DHT22;8085;53.472;9.794;2022-09-04T06:55:20;20.60;1.00
15969;DHT22;8085;53.472;9.794;2022-09-04T06:58:19;20.60;1.00
15969;DHT22;8085;53.472;9.794;2022-09-04T07:00:53;20.60;1.00
15969;DHT22;8085;53.472;9.794;2022-09-04T07:03:37;20.60;1.00
15969;DHT22;8085;53.472;9.794;2022-09-04T07:06:12;20.70;1.00
15969;DHT22;8085;53.472;9.794;2022-09-04T07:08:55;20.60;1.00
15969;DHT22;8085;53.472;9.794;2022-09-04T07:11:31;20.60;1.00
15969;DHT22;8085;53.472;9.794;2022-09-04T07:14:35;20.60;1.00
15969;DHT22;8085;53.472;9.794;2022-09-04T07:17:10;20.60;1.00
15969;DHT22;8085;53.472;9.794;2022-09-04T07:20:04;20.60;1.00
15969;DHT22;8085;53.472;9.794;2022-09-04T07:25:29;20.70;1.00
15969;DHT22;8085;53.472;9.794;2022-09-04T07:28:17;20.60;1.00
15969;DHT22;8085;53.472;9.794;2022-09-04T07:30:51;20.60;1.00
15969;DHT22;8085;53.472;9.794;2022-09-04T07:33:26;20.60;1.00
15969;DHT22;8085;53.472;9.794;2022-09-04T07:36:01;20.70;1.00
15969;DHT22;8085;53.472;9.794;2022-09-04T07:38:37;20.60;1.00
15969;DHT22;8085;53.472;9.794;2022-09-04T07:41:09;20.60;1.00
15969;DHT22;8085;53.472;9.794;2022-09-04T07:43:45;20.60;1.00
15969;DHT22;8085;53.472;9.794;2022-09-04T07:46:20;20.60;1.00
15969;DHT22;8085;53.472;9.794;2022-09-04T07:48:52;20.60;1.00
15969;DHT22;8085;53.472;9.794;2022-09-04T07:51:25;20.60;1.00
15969;DHT22;8085;53.472;9.794;2022-09-04T07:54:15;20.70;1.00
15969;DHT22;8085;53.472;9.794;2022-09-04T07:56:57;20.70;1.00
15969;DHT22;8085;53.472;9.794;2022-09-04T07:59:37;20.70;1.00
15969;DHT22;8085;53.472;9.794;2022-09-04T08:02:26;20.70;1.00
15969;DHT22;8085;53.472;9.794;2022-09-04T08:05:22;20.70;1.00
15969;DHT22;8085;53.472;9.794;2022-09-04T08:11:14;20.70;1.00
15969;DHT22;8085;53.472;9.794;2022-09-04T08:19:47;20.80;1.00
15969;DHT22;8085;53.472;9.794;2022-09-04T08:22:31;20.80;1.00
15969;DHT22;8085;53.472;9.794;2022-09-04T08:25:13;20.80;1.00
15969;DHT22;8085;53.472;9.794;2022-09-04T08:30:40;20.90;1.00
15969;DHT22;8085;53.472;9.794;2022-09-04T08:36:20;21.00;1.00
15969;DHT22;8085;53.472;9.794;2022-09-04T08:39:02;20.90;1.00
15969;DHT22;8085;53.472;9.794;2022-09-04T08:42:13;20.90;1.00
15969;DHT22;8085;53.472;9.794;2022-09-04T08:45:11;21.00;1.00
15969;DHT22;8085;53.472;9.794;2022-09-04T08:54:05;21.00;1.00
15969;DHT22;8085;53.472;9.794;2022-09-04T08:56:44;21.00;1.00
15969;DHT22;8085;53.472;9.794;2022-09-04T08:59:39;21.00;1.00
15969;DHT22;8085;53.472;9.794;2022-09-04T09:02:29;21.10;1.00
15969;DHT22;8085;53.472;9.794;2022-09-04T09:11:24;21.10;1.00
15969;DHT22;8085;53.472;9.794;2022-09-04T09:14:29;21.20;1.00
15969;DHT22;8085;53.472;9.794;2022-09-04T09:17:10;21.20;1.00
15969;DHT22;8085;53.472;9.794;2022-09-04T09:19:45;21.20;1.00
15969;DHT22;8085;53.472;9.794;2022-09-04T09:22:42;21.20;1.00
15969;DHT22;8085;53.472;9.794;2022-09-04T09:25:16;21.20;1.00
15969;DHT22;8085;53.472;9.794;2022-09-04T09:31:31;21.20;1.00
15969;DHT22;8085;53.472;9.794;2022-09-04T09:34:45;21.30;1.00
15969;DHT22;8085;53.472;9.794;2022-09-04T09:37:31;21.50;77.00
15969;DHT22;8085;53.472;9.794;2022-09-04T09:46:32;21.40;1.00
15969;DHT22;8085;53.472;9.794;2022-09-04T09:49:31;21.40;1.00
15969;DHT22;8085;53.472;9.794;2022-09-04T09:58:26;21.40;1.00
15969;DHT22;8085;53.472;9.794;2022-09-04T10:01:25;21.40;1.00
15969;DHT22;8085;53.472;9.794;2022-09-04T10:07:18;21.40;1.00
15969;DHT22;8085;53.472;9.794;2022-09-04T10:10:02;21.40;1.00
15969;DHT22;8085;53.472;9.794;2022-09-04T10:12:58;21.40;1.00
15969;DHT22;8085;53.472;9.794;2022-09-04T10:15:59;21.40;1.00
15969;DHT22;8085;53.472;9.794;2022-09-04T10:28:21;21.50;1.00
15969;DHT22;8085;53.472;9.794;2022-09-04T10:31:17;21.40;1.00
15969;DHT22;8085;53.472;9.794;2022-09-04T10:34:10;21.50;1.00
15969;DHT22;8085;53.472;9.794;2022-09-04T10:36:44;21.50;1.00
15969;DHT22;8085;53.472;9.794;2022-09-04T10:39:22;21.50;1.00
15969;DHT22;8085;53.472;9.794;2022-09-04T10:42:29;21.50;1.00
15969;DHT22;8085;53.472;9.794;2022-09-04T10:45:24;21.50;1.00
15969;DHT22;8085;53.472;9.794;2022-09-04T10:48:23;21.50;1.00
15969;DHT22;8085;53.472;9.794;2022-09-04T10:51:13;21.50;1.00
15969;DHT22;8085;53.472;9.794;2022-09-04T10:54:21;21.50;1.00
15969;DHT22;8085;53.472;9.794;2022-09-04T10:57:01;21.50;1.00
15969;DHT22;8085;53.472;9.794;2022-09-04T10:59:52;21.50;1.00
15969;DHT22;8085;53.472;9.794;2022-09-04T11:02:47;21.50;1.00
15969;DHT22;8085;53.472;9.794;2022-09-04T11:05:39;21.50;1.00
15969;DHT22;8085;53.472;9.794;2022-09-04T11:08:29;21.60;1.00
15969;DHT22;8085;53.472;9.794;2022-09-04T11:11:12;21.60;1.00
15969;DHT22;8085;53.472;9.794;2022-09-04T11:14:16;21.60;1.00
15969;DHT22;8085;53.472;9.794;2022-09-04T11:20:07;21.60;1.00
15969;DHT22;8085;53.472;9.794;2022-09-04T11:29:14;21.60;1.00
15969;DHT22;8085;53.472;9.794;2022-09-04T11:32:02;21.60;1.00
15969;DHT22;8085;53.472;9.794;2022-09-04T11:35:06;21.60;1.00
15969;DHT22;8085;53.472;9.794;2022-09-04T11:37:58;21.60;1.00
15969;DHT22;8085;53.472;9.794;2022-09-04T11:47:29;21.60;1.00
15969;DHT22;8085;53.472;9.794;2022-09-04T11:50:13;21.70;1.00
15969;DHT22;8085;53.472;9.794;2022-09-04T11:53:08;21.70;1.00
15969;DHT22;8085;53.472;9.794;2022-09-04T11:56:00;21.70;1.00
15969;DHT22;8085;53.472;9.794;2022-09-04T11:58:40;21.70;1.00
15969;DHT22;8085;53.472;9.794;2022-09-04T12:01:27;21.70;1.00
15969;DHT22;8085;53.472;9.794;2022-09-04T12:04:23;21.70;1.00
15969;DHT22;8085;53.472;9.794;2022-09-04T12:07:02;21.70;1.00
15969;DHT22;8085;53.472;9.794;2022-09-04T12:13:04;21.70;1.00
15969;DHT22;8085;53.472;9.794;2022-09-04T12:15:54;21.80;1.00
15969;DHT22;8085;53.472;9.794;2022-09-04T12:18:52;21.80;1.00
15969;DHT22;8085;53.472;9.794;2022-09-04T12:21:44;21.80;1.00
15969;DHT22;8085;53.472;9.794;2022-09-04T12:24:44;21.80;1.00
15969;DHT22;8085;53.472;9.794;2022-09-04T12:27:31;21.80;1.00
15969;DHT22;8085;53.472;9.794;2022-09-04T12:30:09;21.90;1.00
15969;DHT22;8085;53.472;9.794;2022-09-04T12:35:58;21.90;1.00
15969;DHT22;8085;53.472;9.794;2022-09-04T12:41:49;22.00;1.00
15969;DHT22;8085;53.472;9.794;2022-09-04T12:44:28;22.00;1.00
15969;DHT22;8085;53.472;9.794;2022-09-04T12:47:07;22.00;1.00
15969;DHT22;8085;53.472;9.794;2022-09-04T12:49:52;22.00;1.00
15969;DHT22;8085;53.472;9.794;2022-09-04T12:52:30;22.00;1.00
15969;DHT22;8085;53.472;9.794;2022-09-04T12:55:09;22.10;1.00
15969;DHT22;8085;53.472;9.794;2022-09-04T12:57:47;22.10;1.00
15969;DHT22;8085;53.472;9.794;2022-09-04T13:00:20;22.20;1.00
15969;DHT22;8085;53.472;9.794;2022-09-04T13:03:00;22.20;1.00
15969;DHT22;8085;53.472;9.794;2022-09-04T13:05:44;22.20;1.00
15969;DHT22;8085;53.472;9.794;2022-09-04T13:08:18;22.30;1.00
15969;DHT22;8085;53.472;9.794;2022-09-04T13:10:55;22.30;1.00
15969;DHT22;8085;53.472;9.794;2022-09-04T13:13:33;22.40;1.00
15969;DHT22;8085;53.472;9.794;2022-09-04T13:16:08;22.50;1.00
15969;DHT22;8085;53.472;9.794;2022-09-04T13:18:47;22.50;1.00
15969;DHT22;8085;53.472;9.794;2022-09-04T13:21:31;22.60;1.00
15969;DHT22;8085;53.472;9.794;2022-09-04T13:24:14;22.50;1.00
15969;DHT22;8085;53.472;9.794;2022-09-04T13:26:54;22.60;1.00
15969;DHT22;8085;53.472;9.794;2022-09-04T13:29:33;22.60;1.00
15969;DHT22;8085;53.472;9.794;2022-09-04T13:32:11;22.70;1.00
15969;DHT22;8085;53.472;9.794;2022-09-04T13:34:57;22.70;1.00
15969;DHT22;8085;53.472;9.794;2022-09-04T13:37:37;22.80;1.00
15969;DHT22;8085;53.472;9.794;2022-09-04T13:40:20;22.80;1.00
15969;DHT22;8085;53.472;9.794;2022-09-04T13:43:13;22.80;1.00
15969;DHT22;8085;53.472;9.794;2022-09-04T13:45:48;22.80;1.00
15969;DHT22;8085;53.472;9.794;2022-09-04T13:48:31;23.00;1.00
15969;DHT22;8085;53.472;9.794;2022-09-04T13:51:06;23.00;1.00
15969;DHT22;8085;53.472;9.794;2022-09-04T13:53:45;23.00;1.00
15969;DHT22;8085;53.472;9.794;2022-09-04T13:56:18;23.00;1.00
15969;DHT22;8085;53.472;9.794;2022-09-04T13:58:50;23.10;1.00
15969;DHT22;8085;53.472;9.794;2022-09-04T14:01:22;23.10;1.00
15969;DHT22;8085;53.472;9.794;2022-09-04T14:03:55;23.10;1.00
15969;DHT22;8085;53.472;9.794;2022-09-04T14:06:25;23.20;1.00
15969;DHT22;8085;53.472;9.794;2022-09-04T14:08:54;23.20;1.00
15969;DHT22;8085;53.472;9.794;2022-09-04T14:14:55;23.30;1.00
15969;DHT22;8085;53.472;9.794;2022-09-04T14:17:39;23.30;1.00
15969;DHT22;8085;53.472;9.794;2022-09-04T14:20:13;23.30;1.00
15969;DHT22;8085;53.472;9.794;2022-09-04T14:22:47;23.30;1.00
15969;DHT22;8085;53.472;9.794;2022-09-04T14:25:24;23.30;1.00
15969;DHT22;8085;53.472;9.794;2022-09-04T14:27:59;23.30;1.00
15969;DHT22;8085;53.472;9.794;2022-09-04T14:30:30;23.40;1.00
15969;DHT22;8085;53.472;9.794;2022-09-04T14:33:14;23.40;1.00
15969;DHT22;8085;53.472;9.794;2022-09-04T14:35:56;23.30;1.00
15969;DHT22;8085;53.472;9.794;2022-09-04T14:38:41;23.30;1.00
15969;DHT22;8085;53.472;9.794;2022-09-04T14:41:19;23.50;1.00
15969;DHT22;8085;53.472;9.794;2022-09-04T14:44:01;23.50;1.00
15969;DHT22;8085;53.472;9.794;2022-09-04T14:46:35;23.50;1.00
15969;DHT22;8085;53.472;9.794;2022-09-04T14:49:07;23.50;1.00
15969;DHT22;8085;53.472;9.794;2022-09-04T14:51:39;23.50;1.00
15969;DHT22;8085;53.472;9.794;2022-09-04T14:54:14;23.50;1.00
15969;DHT22;8085;53.472;9.794;2022-09-04T14:56:44;23.50;1.00
15969;DHT22;8085;53.472;9.794;2022-09-04T14:59:19;23.60;1.00
15969;DHT22;8085;53.472;9.794;2022-09-04T15:02:00;23.70;1.00
15969;DHT22;8085;53.472;9.794;2022-09-04T15:04:37;23.90;1.00
15969;DHT22;8085;53.472;9.794;2022-09-04T15:07:20;24.20;1.00
15969;DHT22;8085;53.472;9.794;2022-09-04T15:09:50;24.80;1.00
15969;DHT22;8085;53.472;9.794;2022-09-04T15:12:22;25.00;1.00
15969;DHT22;8085;53.472;9.794;2022-09-04T15:14:52;25.30;1.00
15969;DHT22;8085;53.472;9.794;2022-09-04T15:17:24;25.50;99.90
15969;DHT22;8085;53.472;9.794;2022-09-04T15:19:58;25.60;99.90
15969;DHT22;8085;53.472;9.794;2022-09-04T15:22:34;25.70;99.90
15969;DHT22;8085;53.472;9.794;2022-09-04T15:25:05;25.70;99.90
15969;DHT22;8085;53.472;9.794;2022-09-04T15:27:41;25.70;99.90
15969;DHT22;8085;53.472;9.794;2022-09-04T15:30:18;25.60;99.90
15969;DHT22;8085;53.472;9.794;2022-09-04T15:32:47;25.60;99.90
15969;DHT22;8085;53.472;9.794;2022-09-04T15:35:21;25.50;99.90
15969;DHT22;8085;53.472;9.794;2022-09-04T15:37:50;25.50;99.90
15969;DHT22;8085;53.472;9.794;2022-09-04T15:40:25;25.40;99.90
15969;DHT22;8085;53.472;9.794;2022-09-04T15:43:02;25.40;99.90
15969;DHT22;8085;53.472;9.794;2022-09-04T15:45:40;25.40;99.90
15969;DHT22;8085;53.472;9.794;2022-09-04T15:48:31;25.50;99.90
15969;DHT22;8085;53.472;9.794;2022-09-04T15:51:11;25.50;99.90
15969;DHT22;8085;53.472;9.794;2022-09-04T15:53:45;25.60;99.90
15969;DHT22;8085;53.472;9.794;2022-09-04T15:56:29;25.60;99.90
15969;DHT22;8085;53.472;9.794;2022-09-04T15:59:06;25.60;99.90
15969;DHT22;8085;53.472;9.794;2022-09-04T16:01:43;25.60;99.90
15969;DHT22;8085;53.472;9.794;2022-09-04T16:04:19;25.70;99.90
15969;DHT22;8085;53.472;9.794;2022-09-04T16:06:55;25.60;99.90
15969;DHT22;8085;53.472;9.794;2022-09-04T16:09:32;25.20;99.90
15969;DHT22;8085;53.472;9.794;2022-09-04T16:12:13;25.10;99.90
15969;DHT22;8085;53.472;9.794;2022-09-04T16:14:44;25.40;99.90
15969;DHT22;8085;53.472;9.794;2022-09-04T16:17:16;25.60;99.90
15969;DHT22;8085;53.472;9.794;2022-09-04T16:19:49;25.50;99.90
15969;DHT22;8085;53.472;9.794;2022-09-04T16:22:36;25.60;99.90
15969;DHT22;8085;53.472;9.794;2022-09-04T16:25:08;25.60;99.90
15969;DHT22;8085;53.472;9.794;2022-09-04T16:27:42;25.50;99.90
15969;DHT22;8085;53.472;9.794;2022-09-04T16:30:24;25.40;99.90
15969;DHT22;8085;53.472;9.794;2022-09-04T16:32:55;25.00;99.90
15969;DHT22;8085;53.472;9.794;2022-09-04T16:35:22;24.90;99.90
15969;DHT22;8085;53.472;9.794;2022-09-04T16:37:56;24.90;99.90
15969;DHT22;8085;53.472;9.794;2022-09-04T16:40:28;24.80;99.90
15969;DHT22;8085;53.472;9.794;2022-09-04T16:43:01;24.90;99.90
15969;DHT22;8085;53.472;9.794;2022-09-04T16:45:38;24.80;99.90
15969;DHT22;8085;53.472;9.794;2022-09-04T16:48:10;24.60;99.90
15969;DHT22;8085;53.472;9.794;2022-09-04T16:50:46;24.40;99.90
15969;DHT22;8085;53.472;9.794;2022-09-04T16:53:20;24.40;99.90
15969;DHT22;8085;53.472;9.794;2022-09-04T16:55:56;24.30;99.90
15969;DHT22;8085;53.472;9.794;2022-09-04T16:58:36;24.10;99.90
15969;DHT22;8085;53.472;9.794;2022-09-04T17:01:16;23.90;99.90
15969;DHT22;8085;53.472;9.794;2022-09-04T17:03:52;23.80;99.90
15969;DHT22;8085;53.472;9.794;2022-09-04T17:06:25;23.70;99.90
15969;DHT22;8085;53.472;9.794;2022-09-04T17:09:02;23.70;99.90
15969;DHT22;8085;53.472;9.794;2022-09-04T17:11:37;23.60;99.90
15969;DHT22;8085;53.472;9.794;2022-09-04T17:14:14;23.60;99.90
15969;DHT22;8085;53.472;9.794;2022-09-04T17:16:50;23.60;99.90
15969;DHT22;8085;53.472;9.794;2022-09-04T17:19:18;23.60;99.90
15969;DHT22;8085;53.472;9.794;2022-09-04T17:22:04;23.50;99.90
15969;DHT22;8085;53.472;9.794;2022-09-04T17:24:54;23.50;99.90
15969;DHT22;8085;53.472;9.794;2022-09-04T17:27:25;23.40;99.90
15969;DHT22;8085;53.472;9.794;2022-09-04T17:29:55;23.40;99.90
15969;DHT22;8085;53.472;9.794;2022-09-04T17:32:26;23.30;99.90
15969;DHT22;8085;53.472;9.794;2022-09-04T17:34:58;23.30;99.90
15969;DHT22;8085;53.472;9.794;2022-09-04T17:37:32;23.20;99.90
15969;DHT22;8085;53.472;9.794;2022-09-04T17:40:07;23.20;99.90
15969;DHT22;8085;53.472;9.794;2022-09-04T17:42:47;23.20;99.90
15969;DHT22;8085;53.472;9.794;2022-09-04T17:45:20;23.20;99.90
15969;DHT22;8085;53.472;9.794;2022-09-04T17:47:59;23.20;99.90
15969;DHT22;8085;53.472;9.794;2022-09-04T17:50:26;23.20;99.90
15969;DHT22;8085;53.472;9.794;2022-09-04T17:52:57;23.20;99.90
15969;DHT22;8085;53.472;9.794;2022-09-04T17:55:27;23.10;99.90
15969;DHT22;8085;53.472;9.794;2022-09-04T17:58:00;23.10;99.90
15969;DHT22;8085;53.472;9.794;2022-09-04T18:00:33;23.00;99.90
15969;DHT22;8085;53.472;9.794;2022-09-04T18:03:12;23.00;99.90
15969;DHT22;8085;53.472;9.794;2022-09-04T18:05:43;23.00;99.90
15969;DHT22;8085;53.472;9.794;2022-09-04T18:08:16;23.00;99.90
15969;DHT22;8085;53.472;9.794;2022-09-04T18:10:54;23.00;99.90
15969;DHT22;8085;53.472;9.794;2022-09-04T18:13:25;22.90;99.90
15969;DHT22;8085;53.472;9.794;2022-09-04T18:16:03;23.00;99.90
15969;DHT22;8085;53.472;9.794;2022-09-04T18:18:37;22.90;99.90
15969;DHT22;8085;53.472;9.794;2022-09-04T18:21:12;22.90;99.90
15969;DHT22;8085;53.472;9.794;2022-09-04T18:23:47;22.80;99.90
15969;DHT22;8085;53.472;9.794;2022-09-04T18:26:24;22.80;99.90
15969;DHT22;8085;53.472;9.794;2022-09-04T18:28:54;22.90;99.90
15969;DHT22;8085;53.472;9.794;2022-09-04T18:31:27;22.80;99.90
15969;DHT22;8085;53.472;9.794;2022-09-04T18:34:17;22.80;99.90
15969;DHT22;8085;53.472;9.794;2022-09-04T18:36:54;22.80;99.90
15969;DHT22;8085;53.472;9.794;2022-09-04T18:39:30;22.80;99.90
15969;DHT22;8085;53.472;9.794;2022-09-04T18:42:15;22.80;99.90
15969;DHT22;8085;53.472;9.794;2022-09-04T18:44:48;22.80;99.90
15969;DHT22;8085;53.472;9.794;2022-09-04T18:47:19;22.70;99.90
15969;DHT22;8085;53.472;9.794;2022-09-04T18:49:54;22.70;99.90
15969;DHT22;8085;53.472;9.794;2022-09-04T18:52:26;22.70;99.90
15969;DHT22;8085;53.472;9.794;2022-09-04T18:54:58;22.70;99.90
15969;DHT22;8085;53.472;9.794;2022-09-04T18:57:33;22.70;99.90
15969;DHT22;8085;53.472;9.794;2022-09-04T19:00:06;22.70;99.90
15969;DHT22;8085;53.472;9.794;2022-09-04T19:02:41;22.70;99.90
15969;DHT22;8085;53.472;9.794;2022-09-04T19:05:10;22.70;99.90
15969;DHT22;8085;53.472;9.794;2022-09-04T19:07:43;22.70;99.90
15969;DHT22;8085;53.472;9.794;2022-09-04T19:10:23;22.60;99.90
15969;DHT22;8085;53.472;9.794;2022-09-04T19:12:58;22.70;99.90